Time;durP1;ratioP1;P1;durP2;ratioP2;P2;SDS_P1;SDS_P2;PMS_P1;PMS_P2;Temp;Humidity;BMP_temperature;BMP_pressure;BME280_temperature;BME280_humidity;BME280_pressure;Samples;Min_cycle;Max_cycle;Signal;HPM_P1;HPM_P2
2022/02/17 00:00:42;;;;;;;0.50;0.40;;;11.30;95.80;;;10.02;90.44;96319.47;5044842;28;20443;-93
2022/02/17 00:03:11;;;;;;;0.40;0.30;;;11.20;96.40;;;10.07;90.40;96314.13;5037972;28;20442;-87
2022/02/17 00:05:39;;;;;;;0.60;0.43;;;11.20;96.00;;;10.25;89.86;96314.84;5038295;28;20440;-90
2022/02/17 00:08:06;;;;;;;0.70;0.43;;;11.30;95.60;;;10.20;89.92;96318.31;5042331;28;20989;-90
2022/02/17 00:10:35;;;;;;;0.40;0.40;;;11.30;95.90;;;10.30;89.31;96320.31;5036885;28;20471;-86
2022/02/17 00:13:03;;;;;;;0.50;0.40;;;11.40;95.00;;;10.37;89.28;96310.09;5034910;28;20529;-85
2022/02/17 00:15:32;;;;;;;0.47;0.30;;;11.50;94.40;;;10.44;88.38;96305.34;5036455;28;20833;-87
2022/02/17 00:18:10;;;;;;;0.47;0.30;;;11.60;94.10;;;10.41;88.93;96305.88;5036173;28;20497;-87
2022/02/17 00:20:38;;;;;;;0.50;0.30;;;11.60;94.20;;;10.52;88.47;96308.63;5036719;28;20438;-87
2022/02/17 00:23:05;;;;;;;0.50;0.40;;;11.60;93.80;;;10.54;88.10;96328.91;5037288;28;20481;-88
2022/02/17 00:25:32;;;;;;;0.60;0.30;;;11.70;93.80;;;10.61;88.25;96323.31;5036076;28;20446;-88
2022/02/17 00:27:59;;;;;;;0.40;0.30;;;11.80;93.80;;;10.62;87.20;96317.66;5035780;28;20838;-87
2022/02/17 00:30:28;;;;;;;0.83;0.33;;;11.70;93.20;;;10.68;86.83;96305.00;5037209;28;20534;-91
2022/02/17 00:32:55;;;;;;;0.40;0.30;;;11.80;93.00;;;10.35;86.79;96250.16;5044150;28;20430;-90
2022/02/17 00:35:22;;;;;;;1.20;0.30;;;11.80;93.00;;;10.66;87.16;96309.84;5055755;28;20445;-90
2022/02/17 00:37:51;;;;;;;1.13;0.33;;;11.80;92.80;;;10.67;87.44;96294.47;5052769;28;20485;-90
2022/02/17 00:40:18;;;;;;;0.43;0.30;;;11.80;93.00;;;10.72;87.76;96289.91;5044154;28;20767;-89
2022/02/17 00:42:45;;;;;;;0.40;0.20;;;11.90;93.20;;;10.74;87.19;96279.66;5039393;28;20442;-85
2022/02/17 00:45:12;;;;;;;0.47;0.30;;;11.90;92.90;;;10.67;87.44;96268.25;5036455;28;20773;-85
2022/02/17 00:47:39;;;;;;;0.67;0.50;;;11.80;93.30;;;10.65;88.08;96272.31;5034021;28;20541;-85
2022/02/17 00:50:07;;;;;;;1.00;0.47;;;11.80;93.50;;;10.59;87.63;96269.53;5037079;28;20466;-92
2022/02/17 00:52:34;;;;;;;0.73;0.30;;;11.90;93.40;;;10.63;88.50;96261.75;5036188;28;20430;-87
2022/02/17 00:55:03;;;;;;;0.47;0.20;;;11.80;93.50;;;10.54;88.17;96241.69;5035442;28;20478;-87
2022/02/17 00:57:30;;;;;;;0.40;0.40;;;11.80;93.80;;;10.72;87.49;96262.06;5034471;28;20442;-88
2022/02/17 00:59:57;;;;;;;0.30;0.20;;;11.80;93.20;;;10.69;87.56;96271.53;5034389;28;20442;-88
2022/02/17 01:02:24;;;;;;;0.53;0.40;;;11.80;93.10;;;10.65;87.48;96265.00;5035658;28;20465;-86
2022/02/17 01:04:51;;;;;;;0.93;0.30;;;11.80;93.70;;;10.76;87.08;96273.97;5034390;28;20506;-88
2022/02/17 01:07:18;;;;;;;0.40;0.30;;;11.90;93.00;;;10.69;87.35;96270.69;5035027;28;20526;-85
2022/02/17 01:09:45;;;;;;;0.87;0.30;;;11.90;92.90;;;10.68;87.29;96264.47;5035331;28;20545;-87
2022/02/17 01:12:14;;;;;;;0.50;0.30;;;11.80;92.90;;;10.73;87.09;96277.19;5034214;28;20456;-87
2022/02/17 01:14:41;;;;;;;0.40;0.30;;;11.90;92.90;;;10.72;87.24;96276.41;5034485;28;20533;-87
2022/02/17 01:17:09;;;;;;;0.40;0.30;;;11.90;93.00;;;10.72;87.32;96283.69;5035604;28;20432;-88
2022/02/17 01:19:36;;;;;;;0.40;0.30;;;11.80;93.00;;;10.80;86.72;96266.19;5034884;28;20490;-87
2022/02/17 01:22:04;;;;;;;0.50;0.47;;;11.90;92.90;;;10.75;86.98;96280.47;5034796;28;20918;-88
2022/02/17 01:24:31;;;;;;;0.50;0.30;;;11.90;92.80;;;10.69;86.90;96278.81;5036838;28;20521;-88
2022/02/17 01:26:58;;;;;;;0.50;0.40;;;11.90;92.80;;;10.74;86.23;96268.84;5039688;28;20462;-88
2022/02/17 01:29:26;;;;;;;0.87;0.50;;;11.90;92.50;;;10.79;86.61;96272.66;5041711;28;20462;-87
2022/02/17 01:31:53;;;;;;;0.50;0.30;;;11.90;92.30;;;10.73;86.25;96271.81;5037045;28;20441;-87
2022/02/17 01:34:21;;;;;;;0.40;0.20;;;11.90;92.40;;;10.73;86.87;96259.13;5036224;28;20465;-89
2022/02/17 01:36:48;;;;;;;0.50;0.30;;;11.80;92.80;;;10.64;87.46;96257.97;5040231;28;20466;-87
2022/02/17 01:39:15;;;;;;;2.10;0.30;;;11.80;93.60;;;10.28;88.39;96196.38;5040968;28;20458;-85
2022/02/17 01:41:43;;;;;;;0.47;0.30;;;11.70;93.60;;;10.59;88.20;96252.53;5043341;28;20426;-87
2022/02/17 01:44:11;;;;;;;0.50;0.37;;;11.80;93.80;;;10.58;88.99;96242.81;5038600;28;20498;-87
2022/02/17 01:46:42;;;;;;;0.40;0.37;;;11.80;94.80;;;10.51;88.70;96243.03;5040488;28;20470;-87
2022/02/17 01:49:11;;;;;;;0.40;0.20;;;11.70;94.40;;;10.55;88.46;96243.34;5036479;28;20528;-86
2022/02/17 01:51:39;;;;;;;0.40;0.30;;;11.70;94.30;;;10.55;89.14;96246.03;5035336;28;20521;-86
2022/02/17 01:54:07;;;;;;;0.40;0.20;;;11.70;94.40;;;10.54;88.43;96265.97;5034028;28;20973;-87
2022/02/17 01:56:37;;;;;;;0.60;0.40;;;11.70;94.20;;;10.61;88.69;96253.09;5034896;28;20446;-87
2022/02/17 01:59:07;;;;;;;3.47;0.40;;;11.80;94.00;;;10.47;88.74;96215.72;5041179;28;20945;-87
2022/02/17 02:01:35;;;;;;;0.40;0.30;;;11.70;94.20;;;10.43;88.40;96182.22;5039515;28;20969;-88
2022/02/17 02:04:05;;;;;;;0.40;0.20;;;11.70;94.10;;;10.42;88.07;96174.38;5038952;28;20465;-88
2022/02/17 02:06:32;;;;;;;0.40;0.20;;;11.60;93.80;;;10.46;87.99;96175.47;5053682;28;20473;-88
2022/02/17 02:08:59;;;;;;;0.50;0.30;;;11.60;93.80;;;10.45;88.30;96185.47;5057175;28;20431;-90
2022/02/17 02:11:26;;;;;;;0.40;0.30;;;11.60;93.90;;;10.48;88.48;96184.94;5055504;28;20461;-88
2022/02/17 02:13:53;;;;;;;0.43;0.33;;;11.60;94.00;;;10.50;88.36;96179.31;5052126;28;20477;-88
2022/02/17 02:16:20;;;;;;;0.57;0.33;;;11.70;93.80;;;10.43;88.08;96184.94;5037748;28;20989;-86
2022/02/17 02:18:47;;;;;;;0.60;0.27;;;11.60;93.80;;;10.37;88.13;96172.41;5034959;28;20477;-85
2022/02/17 02:21:16;;;;;;;0.50;0.30;;;11.60;93.80;;;10.34;87.95;96159.44;5035746;28;20462;-85
2022/02/17 02:23:42;;;;;;;1.03;0.20;;;11.50;93.90;;;10.31;88.48;96157.28;5034991;28;20931;-84
2022/02/17 02:26:09;;;;;;;0.63;0.30;;;11.50;94.00;;;10.17;88.45;96152.31;5037379;28;20489;-83
2022/02/17 02:28:36;;;;;;;0.50;0.40;;;11.40;94.30;;;10.26;88.03;96152.66;5038049;28;20473;-86
2022/02/17 02:31:03;;;;;;;0.50;0.30;;;11.50;93.80;;;10.30;88.22;96156.44;5037899;28;20649;-85
2022/02/17 02:33:30;;;;;;;0.73;0.40;;;11.50;93.70;;;10.37;88.05;96140.03;5042822;28;20449;-88
2022/02/17 02:35:58;;;;;;;0.40;0.30;;;11.50;93.30;;;10.36;87.97;96138.41;5043172;28;20453;-88
2022/02/17 02:38:26;;;;;;;0.50;0.30;;;11.60;93.30;;;10.35;87.57;96110.59;5042071;28;20477;-87
2022/02/17 02:40:55;;;;;;;0.50;0.20;;;11.60;93.20;;;10.37;87.39;96142.72;5043381;28;20486;-88
2022/02/17 02:43:22;;;;;;;0.40;0.27;;;11.50;93.20;;;10.37;87.71;96140.03;5040649;28;20862;-88
2022/02/17 02:45:49;;;;;;;0.50;0.30;;;11.50;93.10;;;10.33;87.22;96120.03;5044255;28;20461;-87
2022/02/17 02:48:16;;;;;;;3.00;0.87;;;11.50;93.00;;;10.08;87.51;96086.41;5052570;28;20485;-89
2022/02/17 02:50:43;;;;;;;0.40;0.20;;;11.50;93.20;;;10.36;87.52;96111.41;5045964;28;20470;-89
2022/02/17 02:53:14;;;;;;;1.00;0.20;;;11.50;93.20;;;10.37;87.29;96120.34;5046175;28;20453;-87
2022/02/17 02:55:44;;;;;;;0.30;0.20;;;11.50;93.10;;;10.35;87.91;96107.09;5041967;28;20455;-87
2022/02/17 02:58:12;;;;;;;0.60;0.30;;;11.50;93.10;;;10.44;87.33;96134.44;5036544;28;20443;-87
2022/02/17 03:00:40;;;;;;;1.57;0.20;;;11.60;92.80;;;10.47;86.42;96132.03;5039077;28;20813;-90
2022/02/17 03:03:07;;;;;;;0.40;0.30;;;11.60;92.70;;;10.50;87.11;96122.59;5041479;28;20465;-88
2022/02/17 03:05:34;;;;;;;0.40;0.30;;;11.70;92.90;;;10.54;86.96;96128.28;5043010;28;20454;-89
2022/02/17 03:08:02;;;;;;;0.50;0.50;;;11.70;92.50;;;10.62;85.77;96125.91;5045665;28;20457;-88
2022/02/17 03:10:30;;;;;;;0.30;0.20;;;11.80;92.40;;;10.60;85.86;96132.66;5040030;28;20875;-87
2022/02/17 03:12:59;;;;;;;0.40;0.20;;;11.80;92.10;;;10.72;85.28;96141.34;5038928;28;20907;-86
2022/02/17 03:15:27;;;;;;;0.90;0.30;;;11.90;91.70;;;10.67;85.81;96122.41;5038696;28;20470;-87
2022/02/17 03:17:54;;;;;;;0.50;0.30;;;11.80;91.80;;;10.73;85.53;96131.34;5037559;28;20474;-86
2022/02/17 03:20:22;;;;;;;0.40;0.20;;;11.90;91.90;;;10.77;85.58;96110.88;5037712;28;20470;-87
2022/02/17 03:22:49;;;;;;;0.30;0.20;;;11.90;91.50;;;10.77;85.58;96110.88;5038947;28;20521;-89
2022/02/17 03:25:17;;;;;;;0.50;0.20;;;11.90;91.30;;;10.71;85.30;96090.28;5042389;28;20525;-89
2022/02/17 03:27:44;;;;;;;0.40;0.20;;;11.90;91.60;;;10.65;86.21;96123.75;5043807;28;20459;-88
2022/02/17 03:30:13;;;;;;;1.47;0.27;;;11.80;92.40;;;10.65;85.69;96110.25;5044181;28;20469;-88
2022/02/17 03:32:40;;;;;;;0.40;0.20;;;11.90;92.10;;;10.38;86.02;96059.88;5043173;28;20796;-89
2022/02/17 03:35:09;;;;;;;0.40;0.20;;;11.90;92.00;;;10.67;85.90;96105.41;5040888;28;20506;-87
2022/02/17 03:37:36;;;;;;;0.30;0.20;;;11.80;92.30;;;10.62;86.32;96092.69;5038689;28;20437;-87
2022/02/17 03:40:04;;;;;;;0.60;0.20;;;11.90;92.30;;;10.66;86.70;96101.88;5039154;28;20442;-88
2022/02/17 03:42:31;;;;;;;1.03;0.40;;;11.80;92.30;;;10.42;85.55;96047.50;5038269;28;20443;-87
2022/02/17 03:44:58;;;;;;;0.30;0.20;;;11.90;92.00;;;10.72;86.23;96122.44;5036243;28;20465;-86
2022/02/17 03:47:26;;;;;;;0.47;0.20;;;11.90;92.20;;;10.76;86.02;96106.50;5036403;28;20450;-85
2022/02/17 03:49:53;;;;;;;0.40;0.30;;;11.90;92.20;;;10.69;86.89;96120.28;5037556;28;20473;-85
2022/02/17 03:52:20;;;;;;;0.40;0.20;;;11.90;92.70;;;10.67;86.33;96095.41;5037914;28;20447;-85
2022/02/17 03:54:47;;;;;;;0.30;0.20;;;11.80;92.60;;;10.79;85.49;96114.09;5036480;28;20534;-85
2022/02/17 03:57:14;;;;;;;0.50;0.20;;;11.90;92.10;;;10.80;84.85;96112.19;5035769;28;20504;-88
2022/02/17 03:59:41;;;;;;;0.30;0.20;;;12.00;91.60;;;10.86;84.74;96130.88;5036908;28;20541;-89
2022/02/17 04:02:08;;;;;;;0.40;0.20;;;12.00;91.40;;;10.72;86.26;96092.75;5035579;28;20489;-86
2022/02/17 04:04:36;;;;;;;0.40;0.20;;;12.00;92.00;;;10.65;86.46;96091.34;5041563;28;20474;-91
2022/02/17 04:07:04;;;;;;;0.40;0.30;;;11.90;92.30;;;10.66;86.00;96099.19;5040206;28;20530;-92
2022/02/17 04:09:31;;;;;;;0.50;0.30;;;11.90;92.30;;;10.71;85.87;96074.09;5040117;28;20462;-91
2022/02/17 04:11:58;;;;;;;0.30;0.20;;;11.90;92.00;;;10.75;85.78;96086.81;5038055;28;20524;-91
2022/02/17 04:14:25;;;;;;;0.37;0.23;;;11.90;91.90;;;10.76;85.44;96098.41;5036359;28;20473;-90
2022/02/17 04:16:52;;;;;;;0.63;0.20;;;11.90;91.70;;;10.86;85.00;96098.47;5036468;28;20490;-89
2022/02/17 04:19:19;;;;;;;0.40;0.40;;;12.00;91.70;;;10.88;85.74;96103.59;5039073;28;20517;-89
2022/02/17 04:21:47;;;;;;;0.40;0.20;;;12.00;91.70;;;10.88;84.94;96095.50;5038585;28;20460;-86
2022/02/17 04:24:14;;;;;;;0.40;0.20;;;12.10;91.70;;;10.87;85.86;96110.09;5035439;28;20446;-85
2022/02/17 04:26:41;;;;;;;0.50;0.27;;;12.00;91.90;;;10.90;84.93;96112.25;5035405;28;20529;-89
2022/02/17 04:29:08;;;;;;;0.40;0.30;;;12.10;91.40;;;10.95;84.13;96136.59;5036244;28;20529;-88
2022/02/17 04:31:36;;;;;;;0.40;0.20;;;12.10;91.10;;;10.88;84.93;96130.63;5036054;28;20549;-88
2022/02/17 04:34:04;;;;;;;0.50;0.30;;;12.10;91.50;;;10.52;85.81;96071.03;5038194;28;20467;-88
2022/02/17 04:36:31;;;;;;;0.90;0.50;;;12.00;91.60;;;10.74;85.98;96130.28;5037200;28;20513;-88
2022/02/17 04:38:59;;;;;;;1.73;0.40;;;11.90;91.90;;;10.82;85.14;96112.75;5034350;28;20474;-87
2022/02/17 04:44:11;;;;;;;0.40;0.30;;;12.00;90.40;;;10.96;83.27;96162.53;5041460;28;20442;-87
2022/02/17 04:46:38;;;;;;;0.50;0.30;;;12.10;90.20;;;10.97;82.57;96169.56;5035577;28;20497;-86
2022/02/17 04:49:05;;;;;;;0.40;0.30;;;12.10;89.70;;;11.04;81.03;96136.88;5036534;28;20447;-88
2022/02/17 04:51:32;;;;;;;0.30;0.27;;;12.20;88.00;;;11.04;80.03;96131.47;5035641;28;20534;-89
2022/02/17 04:54:01;;;;;;;0.40;0.20;;;12.20;87.00;;;11.14;78.30;96141.50;5035296;28;20776;-87
2022/02/17 04:56:28;;;;;;;0.30;0.20;;;12.30;85.40;;;11.19;77.65;96144.25;5036288;28;20438;-88
2022/02/17 04:58:55;;;;;;;1.17;0.20;;;12.30;84.80;;;11.22;77.17;96154.53;5044463;28;20461;-88
2022/02/17 05:01:21;;;;;;;0.30;0.20;;;12.40;84.50;;;11.21;77.72;96158.31;5040702;28;20443;-88
2022/02/17 05:03:48;;;;;;;2.40;0.20;;;12.30;85.10;;;11.17;79.62;96168.84;5041311;28;20474;-90
2022/02/17 05:06:15;;;;;;;0.30;0.20;;;12.30;86.20;;;11.03;81.55;96163.13;5037794;28;20843;-91
2022/02/17 05:08:42;;;;;;;0.40;0.20;;;12.30;88.10;;;10.85;84.86;96166.28;5035236;28;20446;-75
2022/02/17 05:11:11;;;;;;;0.97;0.20;;;12.10;90.90;;;10.61;86.88;96183.72;5034079;28;20559;-76
2022/02/17 05:13:38;;;;;;;0.40;0.20;;;11.90;93.00;;;10.53;87.83;96186.06;5034030;28;20513;-75
2022/02/17 05:16:06;;;;;;;0.70;0.20;;;11.80;94.10;;;10.40;89.57;96181.91;5032340;28;20442;-76
2022/02/17 05:18:33;;;;;;;0.50;0.30;;;11.60;95.30;;;10.27;89.96;96196.66;5034428;28;20450;-77
2022/02/17 05:20:59;;;;;;;0.30;0.20;;;11.50;95.80;;;10.38;87.15;96187.53;5034012;28;20438;-75
2022/02/17 05:23:26;;;;;;;0.50;0.30;;;11.60;93.70;;;10.44;87.03;96166.81;5033883;28;20482;-77
2022/02/17 05:25:53;;;;;;;0.40;0.30;;;11.60;92.70;;;10.52;85.86;96189.81;5032421;28;20797;-77
2022/02/17 05:28:22;;;;;;;0.67;0.20;;;11.70;91.70;;;10.63;85.27;96218.53;5034669;28;20861;-76
2022/02/17 05:30:50;;;;;;;0.73;0.30;;;11.80;91.20;;;10.69;84.20;96247.22;5033582;28;20807;-76
2022/02/17 05:33:17;;;;;;;0.83;0.30;;;11.80;90.80;;;10.46;86.56;96214.09;5033385;28;20450;-78
2022/02/17 05:35:47;;;;;;;0.50;0.40;;;11.70;92.20;;;10.26;87.90;96235.50;5034271;28;20441;-77
2022/02/17 05:38:15;;;;;;;1.17;0.30;;;11.50;93.50;;;10.05;88.52;96224.53;5032815;28;20438;-76
2022/02/17 05:40:42;;;;;;;0.97;0.30;;;11.40;94.20;;;10.02;88.14;96206.16;5033347;28;20458;-76
2022/02/17 05:43:09;;;;;;;0.60;0.30;;;11.30;93.20;;;9.93;86.54;96232.78;5033754;28;20438;-75
2022/02/17 05:45:37;;;;;;;0.70;0.43;;;11.20;92.20;;;9.92;85.75;96234.66;5033755;28;20534;-76
2022/02/17 05:48:05;;;;;;;0.50;0.40;;;11.10;91.60;;;9.98;84.68;96240.91;5031967;28;20842;-76
2022/02/17 05:50:33;;;;;;;0.57;0.30;;;11.20;90.70;;;9.92;85.30;96272.41;5038911;28;20545;-75
2022/02/17 05:53:01;;;;;;;0.40;0.33;;;11.10;90.90;;;9.89;84.59;96247.84;5044601;28;20580;-74
2022/02/17 05:55:28;;;;;;;0.40;0.30;;;11.10;90.50;;;9.88;84.43;96265.91;5038967;28;20860;-77
2022/02/17 05:57:56;;;;;;;2.10;0.70;;;11.10;90.40;;;9.94;82.13;96268.69;5034462;28;20446;-76
2022/02/17 06:00:23;;;;;;;1.13;0.60;;;11.10;88.30;;;9.99;80.45;96260.63;5037196;28;20477;-75
2022/02/17 06:02:51;;;;;;;1.00;0.50;;;11.20;86.40;;;10.05;78.63;96281.19;5038045;28;20504;-78
2022/02/17 06:05:18;;;;;;;0.50;0.40;;;11.20;85.00;;;10.01;78.33;96255.78;5040503;28;20434;-77
2022/02/17 06:07:46;;;;;;;0.40;0.40;;;11.20;84.00;;;10.06;75.61;96269.31;5037403;28;20446;-82
2022/02/17 06:10:14;;;;;;;0.63;0.50;;;11.30;82.50;;;10.08;76.02;96286.06;5054322;28;20429;-89
2022/02/17 06:12:43;;;;;;;0.93;0.43;;;11.30;82.50;;;10.05;75.17;96300.06;5038547;28;20496;-81
2022/02/17 06:15:11;;;;;;;0.60;0.47;;;11.30;81.80;;;10.03;75.04;96316.53;5036586;28;20537;-77
2022/02/17 06:17:39;;;;;;;1.30;0.57;;;11.20;81.40;;;10.06;73.53;96305.22;5035908;28;20770;-77
2022/02/17 06:20:09;;;;;;;1.07;0.47;;;11.30;80.30;;;10.03;74.05;96307.63;5037297;28;20444;-76
2022/02/17 06:22:45;;;;;;;1.27;0.40;;;11.20;80.50;;;9.93;72.79;96321.81;5035876;28;20439;-75
2022/02/17 06:25:13;;;;;;;0.90;0.60;;;11.20;79.80;;;9.94;71.62;96357.72;5035751;28;20521;-77
2022/02/17 06:27:40;;;;;;;5.07;0.83;;;11.10;78.90;;;9.98;70.17;96377.72;5036509;28;20446;-75
2022/02/17 06:30:09;;;;;;;1.80;0.63;;;11.20;77.70;;;9.91;70.21;96369.81;5037820;28;20497;-88
2022/02/17 06:32:36;;;;;;;0.60;0.50;;;11.10;77.30;;;10.03;65.91;96388.56;5041869;28;20469;-90
2022/02/17 06:35:03;;;;;;;1.47;0.60;;;11.20;73.70;;;9.95;66.29;96399.81;5041718;28;20431;-90
2022/02/17 06:37:32;;;;;;;4.57;0.70;;;11.10;73.40;;;9.96;66.04;96387.94;5041488;28;20442;-88
2022/02/17 06:39:58;;;;;;;2.20;0.63;;;11.10;73.10;;;9.94;66.78;96411.66;5045437;28;20826;-88
2022/02/17 06:42:25;;;;;;;1.20;0.47;;;11.10;73.60;;;9.90;67.48;96403.25;5041633;28;20446;-87
2022/02/17 06:44:52;;;;;;;3.13;0.70;;;11.20;73.90;;;9.94;67.50;96427.84;5042935;28;20577;-88
2022/02/17 06:47:20;;;;;;;2.73;0.70;;;11.10;74.30;;;9.90;67.36;96428.31;5041775;28;20489;-87
2022/02/17 06:49:47;;;;;;;2.83;1.20;;;11.10;74.10;;;9.83;66.99;96426.88;5040451;28;20423;-89
2022/02/17 06:52:14;;;;;;;3.37;0.90;;;11.10;73.70;;;9.87;65.48;96458.50;5042213;28;20469;-88
2022/02/17 06:54:43;;;;;;;2.23;0.70;;;11.10;72.60;;;9.94;65.05;96444.03;5045159;28;20454;-87
2022/02/17 06:57:10;;;;;;;2.87;0.80;;;11.10;71.50;;;9.91;62.99;96445.34;5055117;28;20438;-86
2022/02/17 06:59:37;;;;;;;1.93;0.90;;;11.10;70.10;;;9.90;62.29;96468.00;5050500;28;20462;-86
2022/02/17 07:02:05;;;;;;;5.80;0.90;;;11.10;68.80;;;9.86;61.56;96459.56;5048425;28;20467;-85
2022/02/17 07:04:32;;;;;;;3.13;0.87;;;11.10;67.90;;;9.85;60.00;96479.53;5052910;28;20465;-85
2022/02/17 07:06:59;;;;;;;2.33;0.80;;;11.10;66.40;;;9.84;58.42;96483.28;5057086;28;20438;-86
2022/02/17 07:09:26;;;;;;;1.60;1.30;;;11.10;64.50;;;9.76;58.13;96495.31;5054985;28;20442;-86
2022/02/17 07:11:55;;;;;;;2.67;1.27;;;11.00;63.20;;;9.79;55.24;96480.53;5057962;28;20526;-85
2022/02/17 07:14:23;;;;;;;4.00;1.03;;;11.00;60.40;;;9.74;55.30;96521.72;5058237;28;20431;-85
2022/02/17 07:16:53;;;;;;;5.90;1.60;;;11.00;59.80;;;9.82;55.17;96516.97;5048762;28;20500;-79
2022/02/17 07:19:21;;;;;;;3.17;1.40;;;11.00;59.60;;;9.74;54.01;96502.84;5038649;28;20431;-81
2022/02/17 07:21:50;;;;;;;5.27;1.50;;;11.00;58.40;;;9.82;55.21;96590.63;5043683;28;20438;-75
2022/02/17 07:24:17;;;;;;;2.03;1.10;;;11.00;58.80;;;9.75;53.54;96561.13;5037919;28;20442;-76
2022/02/17 07:26:44;;;;;;;5.83;1.70;;;11.00;57.70;;;9.64;52.85;96562.84;5035905;28;20856;-75
2022/02/17 07:29:14;;;;;;;8.13;1.57;;;10.90;57.00;;;9.60;52.85;96574.34;5037672;28;20482;-76
2022/02/17 07:31:42;;;;;;;4.63;1.73;;;10.80;55.90;;;9.54;52.15;96573.44;5040963;28;20496;-76
2022/02/17 07:34:09;;;;;;;8.80;1.93;;;10.80;55.60;;;9.51;50.47;96600.91;5052417;28;20466;-75
2022/02/17 07:36:37;;;;;;;3.00;1.23;;;10.70;54.30;;;9.57;50.22;96575.66;5054304;28;20439;-75
2022/02/17 07:39:05;;;;;;;3.53;1.00;;;10.80;53.60;;;9.58;48.37;96577.28;5054598;28;20434;-76
2022/02/17 07:41:36;;;;;;;4.17;1.20;;;10.80;52.30;;;9.58;48.86;96588.06;5050156;28;20470;-75
2022/02/17 07:44:04;;;;;;;6.90;1.83;;;10.80;52.30;;;9.57;49.33;96574.84;5040053;28;20725;-76
2022/02/17 07:46:32;;;;;;;4.40;1.53;;;10.80;52.40;;;9.53;49.80;96590.69;5034838;28;20926;-75
2022/02/17 07:49:00;;;;;;;8.63;2.53;;;10.80;53.00;;;9.41;50.56;96598.00;5036272;28;20522;-75
2022/02/17 07:51:27;;;;;;;4.53;1.57;;;10.70;53.20;;;9.38;51.23;96593.13;5036976;28;20830;-76
2022/02/17 07:53:54;;;;;;;6.33;1.60;;;10.60;53.60;;;9.19;52.06;96574.47;5038111;28;20487;-83
2022/02/17 07:56:21;;;;;;;6.40;1.90;;;10.50;54.30;;;9.18;52.42;96580.91;5035172;28;20450;-83
2022/02/17 07:58:49;;;;;;;4.53;1.43;;;10.50;54.90;;;9.30;53.45;96597.81;5035854;28;20462;-83
2022/02/17 08:01:16;;;;;;;6.50;2.20;;;10.50;55.20;;;9.42;53.82;96578.09;5035431;28;20462;-84
2022/02/17 08:03:44;;;;;;;11.77;2.07;;;10.60;55.80;;;9.48;53.47;96614.88;5035156;28;20532;-84
2022/02/17 08:06:12;;;;;;;5.40;1.70;;;10.70;55.60;;;9.60;51.89;96610.22;5034894;28;20496;-82
2022/02/17 08:08:39;;;;;;;5.77;2.27;;;10.80;54.30;;;9.51;53.32;96606.28;5034901;28;20932;-83
2022/02/17 08:11:06;;;;;;;4.50;1.57;;;10.80;55.30;;;9.58;52.60;96604.25;5034567;28;20529;-81
2022/02/17 08:13:33;;;;;;;5.97;1.60;;;10.80;55.30;;;9.60;53.50;96630.97;5035614;28;20435;-84
2022/02/17 08:16:00;;;;;;;10.13;2.37;;;10.80;55.60;;;9.61;54.44;96614.53;5036536;28;20474;-86
2022/02/17 08:18:27;;;;;;;3.77;1.30;;;10.80;55.80;;;9.64;53.91;96632.94;5037630;28;20461;-84
2022/02/17 08:20:55;;;;;;;5.40;1.80;;;10.90;55.70;;;9.65;53.64;96647.22;5037854;28;20474;-85
2022/02/17 08:23:23;;;;;;;11.23;2.07;;;10.90;55.80;;;9.69;53.08;96631.41;5036099;28;20467;-84
2022/02/17 08:25:54;;;;;;;10.13;2.10;;;10.90;55.40;;;9.66;52.82;96610.31;5036506;28;20474;-84
2022/02/17 08:28:21;;;;;;;6.97;1.80;;;10.90;55.20;;;9.51;51.18;96622.47;5036176;28;20544;-84
2022/02/17 08:30:48;;;;;;;7.80;1.90;;;10.90;54.30;;;9.67;51.45;96647.81;5041534;28;20521;-83
2022/02/17 08:33:15;;;;;;;7.40;2.00;;;10.90;53.90;;;9.61;51.62;96646.91;5048442;28;20485;-84
2022/02/17 08:35:42;;;;;;;13.10;2.73;;;10.90;54.10;;;9.55;51.52;96641.66;5054107;28;20450;-83
2022/02/17 08:38:11;;;;;;;8.57;2.37;;;10.80;54.00;;;9.46;52.07;96660.09;5039055;28;20446;-82
2022/02/17 08:40:38;;;;;;;5.70;1.90;;;10.70;53.90;;;9.09;52.62;96596.63;5036551;28;20537;-85
2022/02/17 08:43:13;;;;;;;8.00;2.37;;;10.70;54.20;;;9.29;52.86;96620.44;5036304;28;20441;-84
2022/02/17 08:45:43;;;;;;;6.87;1.83;;;10.60;54.60;;;9.22;54.24;96638.66;5037362;28;20496;-84
2022/02/17 08:48:11;;;;;;;6.77;2.13;;;10.50;55.30;;;9.19;54.51;96631.84;5046653;28;20439;-85
2022/02/17 08:50:40;;;;;;;4.60;1.60;;;10.50;55.60;;;9.27;55.26;96646.81;5056913;28;20917;-84
2022/02/17 08:53:09;;;;;;;8.43;3.17;;;10.50;56.40;;;9.34;56.02;96642.13;5040496;28;20215;-81
2022/02/17 08:55:37;;;;;;;9.60;2.10;;;10.50;57.00;;;9.32;54.13;96630.75;5035053;28;20559;-83
2022/02/17 08:58:04;;;;;;;8.23;1.77;;;10.70;55.60;;;9.41;53.73;96649.22;5033977;28;20438;-84
2022/02/17 09:00:31;;;;;;;7.90;2.57;;;10.60;55.60;;;9.40;54.64;96634.13;5036644;28;20850;-85
2022/02/17 09:02:59;;;;;;;7.53;2.07;;;10.70;56.00;;;9.45;54.23;96645.00;5035560;28;20443;-85
2022/02/17 09:05:27;;;;;;;4.10;1.37;;;10.70;56.00;;;9.44;55.02;96656.84;5035092;28;20504;-84
2022/02/17 09:07:54;;;;;;;7.20;1.77;;;10.70;56.40;;;9.46;55.24;96665.50;5035454;28;20504;-85
2022/02/17 09:10:22;;;;;;;3.30;1.20;;;10.70;57.00;;;9.43;55.86;96690.25;5035477;28;20494;-85
2022/02/17 09:12:49;;;;;;;4.47;1.30;;;10.70;56.80;;;9.46;55.84;96676.28;5033710;28;20529;-84
2022/02/17 09:15:17;;;;;;;1.30;0.90;;;10.70;57.20;;;9.31;56.28;96656.06;5034822;28;20438;-83
2022/02/17 09:17:46;;;;;;;6.27;1.53;;;10.60;57.10;;;9.22;57.23;96687.16;5035898;28;20435;-85
2022/02/17 09:20:15;;;;;;;6.07;1.80;;;10.50;57.60;;;9.18;57.74;96684.13;5036509;28;20522;-88
2022/02/17 09:22:42;;;;;;;6.03;1.57;;;10.40;58.30;;;8.96;60.17;96683.94;5034243;28;20450;-84
2022/02/17 09:25:10;;;;;;;2.40;0.70;;;10.30;60.10;;;8.66;61.63;96711.84;5035335;28;20792;-83
2022/02/17 09:27:38;;;;;;;4.23;1.10;;;10.00;61.20;;;8.46;61.51;96718.38;5037638;28;20549;-84
2022/02/17 09:30:08;;;;;;;1.63;1.03;;;9.80;62.20;;;8.03;63.78;96724.88;5035508;28;20866;-86
2022/02/17 09:32:36;;;;;;;10.33;1.50;;;9.50;63.30;;;7.48;67.92;96750.88;5037024;28;20471;-86
2022/02/17 09:35:03;;;;;;;6.33;1.37;;;9.10;66.80;;;6.89;73.07;96737.91;5057702;28;20455;-86
2022/02/17 09:37:31;;;;;;;3.50;1.27;;;8.40;71.70;;;6.72;74.19;96746.56;5064005;28;20450;-86
2022/02/17 09:39:59;;;;;;;9.80;2.05;;;8.20;73.80;;;6.88;70.90;96851.75;5052028;28;20479;-85
2022/02/17 09:42:27;;;;;;;6.33;1.70;;;8.20;71.90;;;6.60;73.02;96794.78;5045767;28;20627;-84
2022/02/17 09:44:56;;;;;;;11.60;1.63;;;8.10;73.30;;;6.27;74.52;96769.06;5044784;28;20454;-87
2022/02/17 09:47:24;;;;;;;4.07;1.37;;;7.80;74.90;;;6.48;73.43;96792.00;5045333;28;20474;-89
2022/02/17 09:49:52;;;;;;;5.40;1.40;;;7.80;74.40;;;6.03;75.60;96739.31;5050758;28;20796;-86
2022/02/17 09:52:19;;;;;;;4.57;1.50;;;7.80;76.10;;;6.11;74.62;96738.22;5051567;28;20462;-86
2022/02/17 09:54:47;;;;;;;6.60;1.30;;;7.80;75.40;;;6.35;75.52;96781.38;5057254;28;20473;-87
2022/02/17 09:57:14;;;;;;;7.73;1.80;;;7.80;76.40;;;6.49;74.88;96776.72;5058699;28;20472;-84
2022/02/17 09:59:42;;;;;;;6.47;0.90;;;7.80;76.30;;;6.07;75.43;96726.28;5057271;28;20449;-86
2022/02/17 10:02:12;;;;;;;11.30;1.77;;;7.90;76.70;;;6.59;75.96;96792.31;5055771;28;20435;-85
2022/02/17 10:04:39;;;;;;;6.90;1.93;;;8.00;77.70;;;6.87;76.02;96804.44;5045586;28;20586;-87
2022/02/17 10:07:07;;;;;;;4.83;1.70;;;8.10;78.40;;;6.90;76.23;96772.63;5044069;28;20927;-84
2022/02/17 10:09:40;;;;;;;5.80;2.07;;;8.40;78.30;;;7.08;75.51;96758.38;5042004;28;20528;-84
2022/02/17 10:12:10;;;;;;;3.87;1.60;;;8.50;78.60;;;7.49;74.43;96812.47;5040059;28;20470;-82
2022/02/17 10:14:37;;;;;;;6.40;2.40;;;8.80;77.80;;;7.82;71.76;96805.03;5040489;28;20770;-86
2022/02/17 10:17:08;;;;;;;8.63;1.73;;;9.10;76.20;;;8.41;70.29;96817.03;5042307;28;20593;-87
2022/02/17 10:19:39;;;;;;;9.10;2.60;;;9.50;75.60;;;8.86;66.37;96807.63;5040557;28;20752;-85
2022/02/17 10:22:09;;;;;;;8.20;2.20;;;10.00;71.90;;;9.27;66.38;96808.53;5041026;28;20435;-84
2022/02/17 10:24:40;;;;;;;11.00;2.90;;;10.40;71.80;;;9.38;64.79;96789.91;5041626;28;20473;-86
2022/02/17 10:27:10;;;;;;;10.70;2.20;;;10.60;70.50;;;9.42;63.54;96793.75;5040725;28;20772;-83